createdAt,value
2023-11-27T00:12:37.225Z,40.27
2023-11-27T00:15:04.600Z,39.99
2023-11-27T00:17:34.335Z,39.77
2023-11-27T15:59:41.459Z,62.50
2023-11-27T16:02:09.590Z,62.25
2023-11-27T16:04:39.610Z,62.89
2023-11-27T16:07:07.436Z,63.38
2023-11-27T16:09:35.352Z,63.81
2023-11-27T16:12:04.562Z,64.31
2023-11-27T16:14:32.429Z,64.89
2023-11-27T16:17:00.288Z,65.59
2023-11-27T16:19:29.333Z,66.06
2023-11-27T16:21:57.068Z,66.48
2023-11-27T16:24:25.022Z,66.85
2023-11-27T16:26:54.110Z,67.01
2023-11-27T16:29:21.958Z,67.25
2023-11-27T16:31:49.822Z,67.51
2023-11-27T16:34:18.840Z,67.77
2023-11-27T16:36:46.609Z,68.01
2023-11-27T16:39:15.041Z,68.32
2023-11-27T16:41:44.176Z,68.54
2023-11-27T16:44:12.072Z,68.78
2023-11-27T16:46:39.988Z,69.03
2023-11-27T16:49:09.033Z,69.10
2023-11-27T16:51:36.869Z,69.39
2023-11-27T16:54:04.525Z,69.42
2023-11-27T16:56:33.737Z,69.29
2023-11-27T16:59:01.892Z,69.31
2023-11-27T17:01:29.782Z,69.37
2023-11-27T17:03:58.993Z,69.29
2023-11-27T17:06:26.938Z,69.41
2023-11-27T17:08:54.691Z,69.27
2023-11-27T17:11:23.978Z,69.29
2023-11-27T17:13:51.697Z,69.45
2023-11-27T17:16:19.677Z,69.62
2023-11-27T17:18:49.045Z,69.44
2023-11-27T17:21:17.289Z,69.29
2023-11-27T17:23:45.171Z,69.24
2023-11-27T17:26:14.565Z,69.34
2023-11-27T17:28:42.546Z,69.27
2023-11-27T17:31:12.821Z,69.39
2023-11-27T17:33:40.624Z,69.31
2023-11-27T17:36:08.451Z,69.40
2023-11-27T17:38:37.685Z,69.24
2023-11-27T17:41:05.548Z,69.45
2023-11-27T17:43:33.653Z,69.23
2023-11-27T17:46:02.741Z,69.21
2023-11-27T17:48:30.694Z,69.27
2023-11-27T17:50:58.563Z,69.15
2023-11-27T17:53:27.649Z,69.03
2023-11-27T17:55:58.029Z,69.19
2023-11-27T17:58:27.718Z,69.06
2023-11-27T18:00:55.484Z,68.89
2023-11-27T18:03:25.908Z,68.82
2023-11-27T18:05:53.739Z,69.01
2023-11-27T18:08:23.850Z,68.92
2023-11-27T18:10:51.689Z,68.96
2023-11-27T18:13:19.421Z,68.92
2023-11-27T18:15:48.478Z,69.09
2023-11-27T18:18:16.295Z,69.17
2023-11-27T18:20:44.007Z,69.25
2023-11-27T18:23:13.100Z,69.30
2023-11-27T18:25:41.290Z,69.38
2023-11-27T18:28:09.071Z,69.45
2023-11-27T18:30:38.136Z,69.56
2023-11-27T18:33:05.905Z,69.58
2023-11-27T18:35:33.675Z,69.69
2023-11-27T18:38:02.858Z,69.65
2023-11-27T18:40:30.761Z,69.85
2023-11-27T18:42:58.604Z,69.85
2023-11-27T18:45:27.696Z,70.10
2023-11-27T18:47:55.432Z,70.21
2023-11-27T18:50:23.397Z,70.13
2023-11-27T18:52:52.479Z,70.26
2023-11-27T18:55:20.540Z,70.36
2023-11-27T18:57:51.356Z,70.50
2023-11-27T19:00:21.534Z,70.73
2023-11-27T19:02:49.275Z,70.61
2023-11-27T19:05:17.071Z,70.72
2023-11-27T19:07:45.957Z,70.94
2023-11-27T19:10:13.804Z,70.93
2023-11-27T19:12:41.984Z,71.02
2023-11-27T19:15:11.095Z,71.22
2023-11-27T19:17:39.064Z,71.35
2023-11-27T19:20:07.123Z,71.69
2023-11-27T19:22:36.444Z,71.87
2023-11-27T19:25:04.208Z,72.30
2023-11-27T19:27:32.058Z,72.01
2023-11-27T19:30:01.201Z,72.26
2023-11-27T19:32:28.819Z,72.18
2023-11-27T19:34:56.843Z,72.24
2023-11-27T19:37:26.311Z,72.53
2023-11-27T19:39:54.043Z,72.54
2023-11-27T19:42:24.175Z,72.71
2023-11-27T19:44:52.141Z,72.61
2023-11-27T19:47:20.073Z,72.61
2023-11-27T19:49:49.169Z,72.49
2023-11-27T19:52:16.874Z,72.45
2023-11-27T19:54:44.522Z,72.37
2023-11-27T19:57:13.622Z,72.52
2023-11-27T19:59:41.385Z,72.53
2023-11-27T20:02:09.330Z,72.35
2023-11-27T20:04:38.587Z,72.24
2023-11-27T20:07:06.187Z,72.30
2023-11-27T20:09:33.963Z,72.39
2023-11-27T20:12:02.859Z,72.30
2023-11-27T20:14:30.719Z,72.40
2023-11-27T20:16:58.693Z,72.50
2023-11-27T20:19:27.894Z,72.30
2023-11-27T20:21:55.656Z,72.38
2023-11-27T20:24:23.312Z,72.41
2023-11-27T20:26:52.317Z,72.43
2023-11-27T20:29:19.975Z,72.41
2023-11-27T20:31:47.950Z,72.58
2023-11-27T20:34:16.976Z,72.86
2023-11-27T20:36:44.790Z,72.86
2023-11-27T20:39:12.770Z,72.92
2023-11-27T20:41:42.366Z,72.88
2023-11-27T20:44:10.553Z,72.89
2023-11-27T20:46:40.880Z,72.91
2023-11-27T20:49:08.629Z,72.75
2023-11-27T20:51:36.501Z,72.71
2023-11-27T20:54:05.585Z,72.80
2023-11-27T20:56:33.353Z,72.98
2023-11-27T20:59:01.222Z,72.92
2023-11-27T21:01:30.925Z,72.90
2023-11-27T21:03:58.595Z,73.01
2023-11-27T21:06:28.608Z,73.08
2023-11-27T21:08:56.369Z,73.00
2023-11-27T21:11:24.779Z,72.95
2023-11-27T21:13:54.508Z,72.92
2023-11-27T21:16:22.711Z,73.11
2023-11-27T21:18:52.853Z,73.20
2023-11-27T21:21:20.528Z,73.38
2023-11-27T21:23:48.677Z,73.54
2023-11-27T21:26:17.777Z,73.78
2023-11-27T21:28:45.705Z,73.63
2023-11-27T21:31:13.337Z,73.82
2023-11-27T21:33:42.391Z,74.14
2023-11-27T21:36:09.964Z,74.02
2023-11-27T21:38:37.734Z,74.23
2023-11-27T21:41:06.973Z,74.18
2023-11-27T21:43:34.917Z,74.42
2023-11-27T21:46:03.122Z,74.57
2023-11-27T21:48:32.149Z,74.91
2023-11-27T21:50:59.711Z,74.79
2023-11-27T21:53:27.501Z,75.05
2023-11-27T21:55:56.806Z,75.50
2023-11-27T21:58:24.790Z,75.56
2023-11-27T22:00:54.861Z,75.34
2023-11-27T22:03:22.638Z,75.78
2023-11-27T22:05:50.519Z,75.93
2023-11-27T22:08:19.532Z,76.07
2023-11-27T22:10:47.477Z,76.16
2023-11-27T22:13:15.185Z,76.40
2023-11-27T22:15:44.221Z,76.46
2023-11-27T22:18:11.973Z,76.68
2023-11-27T22:20:39.745Z,76.61
2023-11-27T22:23:09.035Z,76.89
2023-11-27T22:25:36.822Z,76.79
2023-11-27T22:28:04.979Z,77.03
2023-11-27T22:30:34.071Z,77.21
2023-11-27T22:33:01.848Z,76.97
2023-11-27T22:35:29.697Z,77.10
2023-11-27T22:37:58.717Z,77.02
2023-11-27T22:40:26.701Z,77.03
2023-11-27T22:42:54.446Z,77.23
2023-11-27T22:45:23.523Z,77.27
2023-11-27T22:47:51.189Z,77.32
2023-11-27T22:50:19.046Z,77.18
2023-11-27T22:52:48.286Z,77.27
2023-11-27T22:55:16.314Z,77.21
2023-11-27T22:57:45.248Z,77.24
2023-11-27T23:00:15.629Z,77.16
2023-11-27T23:02:43.837Z,77.00
2023-11-27T23:05:11.574Z,77.10
2023-11-27T23:07:40.621Z,77.12
2023-11-27T23:10:08.557Z,77.02
2023-11-27T23:12:36.408Z,77.15
2023-11-27T23:15:05.482Z,77.22
2023-11-27T23:17:33.396Z,77.20
2023-11-27T23:20:01.689Z,77.13
2023-11-27T23:22:30.852Z,77.15
2023-11-27T23:24:58.691Z,77.39
2023-11-27T23:27:26.452Z,77.61
2023-11-27T23:29:55.341Z,77.50
2023-11-27T23:32:23.210Z,77.42
2023-11-27T23:34:51.182Z,77.46
2023-11-27T23:37:20.795Z,77.80
2023-11-27T23:39:48.447Z,77.79
2023-11-27T23:42:19.172Z,77.68
2023-11-27T23:44:46.839Z,77.87
2023-11-27T23:47:16.887Z,78.02
2023-11-27T23:49:44.656Z,78.11
2023-11-27T23:52:12.482Z,78.19
2023-11-27T23:54:41.695Z,78.17
2023-11-27T23:57:09.342Z,78.06
2023-11-27T23:59:37.210Z,78.18
